sensor_id;sensor_type;location;lat;lon;timestamp;P1;durP1;ratioP1;P2;durP2;ratioP2
9160;SDS011;4615;51.340;8.288;2023-06-10T00:01:29;8.50;;;7.70;;
9160;SDS011;4615;51.340;8.288;2023-06-10T00:03:56;8.10;;;7.28;;
9160;SDS011;4615;51.340;8.288;2023-06-10T00:06:22;8.25;;;7.53;;
9160;SDS011;4615;51.340;8.288;2023-06-10T00:08:49;8.05;;;7.35;;
9160;SDS011;4615;51.340;8.288;2023-06-10T00:11:15;8.65;;;7.90;;
9160;SDS011;4615;51.340;8.288;2023-06-10T00:13:42;8.23;;;7.50;;
9160;SDS011;4615;51.340;8.288;2023-06-10T00:16:10;8.57;;;7.77;;
9160;SDS011;4615;51.340;8.288;2023-06-10T00:18:36;8.65;;;7.85;;
9160;SDS011;4615;51.340;8.288;2023-06-10T00:21:03;8.50;;;7.70;;
9160;SDS011;4615;51.340;8.288;2023-06-10T00:23:30;8.57;;;7.82;;
9160;SDS011;4615;51.340;8.288;2023-06-10T00:26:02;8.50;;;7.70;;
9160;SDS011;4615;51.340;8.288;2023-06-10T00:28:29;7.78;;;7.18;;
9160;SDS011;4615;51.340;8.288;2023-06-10T00:30:55;8.30;;;7.60;;
9160;SDS011;4615;51.340;8.288;2023-06-10T00:33:23;8.53;;;7.60;;
9160;SDS011;4615;51.340;8.288;2023-06-10T00:35:50;8.27;;;7.57;;
9160;SDS011;4615;51.340;8.288;2023-06-10T00:38:16;8.75;;;7.88;;
9160;SDS011;4615;51.340;8.288;2023-06-10T00:40:43;8.20;;;7.50;;
9160;SDS011;4615;51.340;8.288;2023-06-10T00:43:09;8.45;;;7.70;;
9160;SDS011;4615;51.340;8.288;2023-06-10T00:45:36;8.20;;;7.53;;
9160;SDS011;4615;51.340;8.288;2023-06-10T00:48:02;8.65;;;7.82;;
9160;SDS011;4615;51.340;8.288;2023-06-10T00:50:31;8.55;;;7.80;;
9160;SDS011;4615;51.340;8.288;2023-06-10T00:52:58;8.55;;;7.82;;
9160;SDS011;4615;51.340;8.288;2023-06-10T00:55:25;8.65;;;7.85;;
9160;SDS011;4615;51.340;8.288;2023-06-10T00:57:52;8.77;;;8.07;;
9160;SDS011;4615;51.340;8.288;2023-06-10T01:00:19;8.65;;;7.82;;
9160;SDS011;4615;51.340;8.288;2023-06-10T01:02:45;8.80;;;8.00;;
9160;SDS011;4615;51.340;8.288;2023-06-10T01:05:12;8.75;;;7.95;;
9160;SDS011;4615;51.340;8.288;2023-06-10T01:07:42;9.43;;;8.63;;
9160;SDS011;4615;51.340;8.288;2023-06-10T01:10:11;9.05;;;8.25;;
9160;SDS011;4615;51.340;8.288;2023-06-10T01:12:39;9.33;;;8.40;;
9160;SDS011;4615;51.340;8.288;2023-06-10T01:15:07;9.27;;;8.48;;
9160;SDS011;4615;51.340;8.288;2023-06-10T01:17:37;8.30;;;7.70;;
9160;SDS011;4615;51.340;8.288;2023-06-10T01:20:04;8.95;;;8.25;;
9160;SDS011;4615;51.340;8.288;2023-06-10T01:22:38;8.48;;;7.78;;
9160;SDS011;4615;51.340;8.288;2023-06-10T01:25:04;8.65;;;7.90;;
9160;SDS011;4615;51.340;8.288;2023-06-10T01:27:33;8.80;;;8.10;;
9160;SDS011;4615;51.340;8.288;2023-06-10T01:30:06;9.40;;;8.57;;
9160;SDS011;4615;51.340;8.288;2023-06-10T01:32:34;9.15;;;8.25;;
9160;SDS011;4615;51.340;8.288;2023-06-10T01:35:03;9.50;;;8.63;;
9160;SDS011;4615;51.340;8.288;2023-06-10T01:37:31;9.10;;;8.30;;
9160;SDS011;4615;51.340;8.288;2023-06-10T01:40:00;9.07;;;8.27;;
9160;SDS011;4615;51.340;8.288;2023-06-10T01:42:29;9.68;;;8.77;;
9160;SDS011;4615;51.340;8.288;2023-06-10T01:44:56;9.63;;;8.88;;
9160;SDS011;4615;51.340;8.288;2023-06-10T01:47:22;10.20;;;8.60;;
9160;SDS011;4615;51.340;8.288;2023-06-10T01:49:48;9.43;;;8.52;;
9160;SDS011;4615;51.340;8.288;2023-06-10T01:52:15;8.93;;;8.23;;
9160;SDS011;4615;51.340;8.288;2023-06-10T01:54:41;9.27;;;8.43;;
9160;SDS011;4615;51.340;8.288;2023-06-10T01:57:09;9.60;;;8.70;;
9160;SDS011;4615;51.340;8.288;2023-06-10T01:59:35;9.15;;;8.38;;
9160;SDS011;4615;51.340;8.288;2023-06-10T02:02:03;9.40;;;8.53;;
9160;SDS011;4615;51.340;8.288;2023-06-10T02:04:30;9.52;;;8.57;;
9160;SDS011;4615;51.340;8.288;2023-06-10T02:06:56;9.30;;;8.50;;
9160;SDS011;4615;51.340;8.288;2023-06-10T02:09:22;9.60;;;8.80;;
9160;SDS011;4615;51.340;8.288;2023-06-10T02:11:49;9.50;;;8.70;;
9160;SDS011;4615;51.340;8.288;2023-06-10T02:14:17;9.85;;;8.95;;
9160;SDS011;4615;51.340;8.288;2023-06-10T02:16:43;9.32;;;8.52;;
9160;SDS011;4615;51.340;8.288;2023-06-10T02:19:12;9.48;;;8.68;;
9160;SDS011;4615;51.340;8.288;2023-06-10T02:21:38;9.18;;;8.38;;
9160;SDS011;4615;51.340;8.288;2023-06-10T02:24:05;9.27;;;8.43;;
9160;SDS011;4615;51.340;8.288;2023-06-10T02:26:31;9.85;;;8.98;;
9160;SDS011;4615;51.340;8.288;2023-06-10T02:28:58;9.10;;;8.30;;
9160;SDS011;4615;51.340;8.288;2023-06-10T02:31:25;10.15;;;8.82;;
9160;SDS011;4615;51.340;8.288;2023-06-10T02:33:53;9.02;;;8.32;;
9160;SDS011;4615;51.340;8.288;2023-06-10T02:36:20;10.07;;;8.90;;
9160;SDS011;4615;51.340;8.288;2023-06-10T02:38:49;9.73;;;8.82;;
9160;SDS011;4615;51.340;8.288;2023-06-10T02:41:15;9.70;;;8.90;;
9160;SDS011;4615;51.340;8.288;2023-06-10T02:43:41;9.38;;;8.57;;
9160;SDS011;4615;51.340;8.288;2023-06-10T02:46:08;8.90;;;8.10;;
9160;SDS011;4615;51.340;8.288;2023-06-10T02:48:41;9.00;;;8.30;;
9160;SDS011;4615;51.340;8.288;2023-06-10T02:51:08;9.27;;;8.48;;
9160;SDS011;4615;51.340;8.288;2023-06-10T02:53:35;9.30;;;8.30;;
9160;SDS011;4615;51.340;8.288;2023-06-10T02:56:01;9.38;;;8.57;;
9160;SDS011;4615;51.340;8.288;2023-06-10T02:58:28;9.50;;;8.70;;
9160;SDS011;4615;51.340;8.288;2023-06-10T03:00:54;9.40;;;8.60;;
9160;SDS011;4615;51.340;8.288;2023-06-10T03:03:21;9.35;;;8.55;;
9160;SDS011;4615;51.340;8.288;2023-06-10T03:05:49;9.60;;;8.80;;
9160;SDS011;4615;51.340;8.288;2023-06-10T03:08:15;10.35;;;9.45;;
9160;SDS011;4615;51.340;8.288;2023-06-10T03:10:42;10.33;;;9.43;;
9160;SDS011;4615;51.340;8.288;2023-06-10T03:13:08;9.98;;;9.18;;
9160;SDS011;4615;51.340;8.288;2023-06-10T03:15:35;10.10;;;9.30;;
9160;SDS011;4615;51.340;8.288;2023-06-10T03:18:02;9.18;;;8.38;;
9160;SDS011;4615;51.340;8.288;2023-06-10T03:20:29;9.75;;;8.88;;
9160;SDS011;4615;51.340;8.288;2023-06-10T03:22:57;10.32;;;9.32;;
9160;SDS011;4615;51.340;8.288;2023-06-10T03:25:23;9.23;;;8.38;;
9160;SDS011;4615;51.340;8.288;2023-06-10T03:27:51;9.00;;;8.20;;
9160;SDS011;4615;51.340;8.288;2023-06-10T03:30:17;9.50;;;8.70;;
9160;SDS011;4615;51.340;8.288;2023-06-10T03:32:44;8.88;;;8.10;;
9160;SDS011;4615;51.340;8.288;2023-06-10T03:35:10;8.77;;;8.00;;
9160;SDS011;4615;51.340;8.288;2023-06-10T03:37:37;9.38;;;8.50;;
9160;SDS011;4615;51.340;8.288;2023-06-10T03:40:05;9.50;;;8.60;;
9160;SDS011;4615;51.340;8.288;2023-06-10T03:42:32;9.00;;;8.30;;
9160;SDS011;4615;51.340;8.288;2023-06-10T03:44:58;9.20;;;8.35;;
9160;SDS011;4615;51.340;8.288;2023-06-10T03:47:25;9.27;;;8.43;;
9160;SDS011;4615;51.340;8.288;2023-06-10T03:49:51;9.48;;;8.57;;
9160;SDS011;4615;51.340;8.288;2023-06-10T03:52:18;9.13;;;8.32;;
9160;SDS011;4615;51.340;8.288;2023-06-10T03:54:45;9.65;;;8.75;;
9160;SDS011;4615;51.340;8.288;2023-06-10T03:57:12;9.63;;;8.82;;
9160;SDS011;4615;51.340;8.288;2023-06-10T03:59:39;9.27;;;8.50;;
9160;SDS011;4615;51.340;8.288;2023-06-10T04:02:05;8.80;;;8.00;;
9160;SDS011;4615;51.340;8.288;2023-06-10T04:04:33;9.07;;;8.27;;
9160;SDS011;4615;51.340;8.288;2023-06-10T04:07:00;8.98;;;8.18;;
9160;SDS011;4615;51.340;8.288;2023-06-10T04:09:26;9.00;;;8.30;;
9160;SDS011;4615;51.340;8.288;2023-06-10T04:11:53;9.30;;;8.50;;
9160;SDS011;4615;51.340;8.288;2023-06-10T04:14:20;9.10;;;8.20;;
9160;SDS011;4615;51.340;8.288;2023-06-10T04:16:47;9.10;;;8.38;;
9160;SDS011;4615;51.340;8.288;2023-06-10T04:19:13;9.25;;;8.27;;
9160;SDS011;4615;51.340;8.288;2023-06-10T04:21:40;9.40;;;8.65;;
9160;SDS011;4615;51.340;8.288;2023-06-10T04:24:06;8.85;;;8.10;;
9160;SDS011;4615;51.340;8.288;2023-06-10T04:26:33;8.80;;;8.00;;
9160;SDS011;4615;51.340;8.288;2023-06-10T04:29:00;9.02;;;8.13;;
9160;SDS011;4615;51.340;8.288;2023-06-10T04:31:27;8.73;;;8.00;;
9160;SDS011;4615;51.340;8.288;2023-06-10T04:33:54;8.65;;;7.85;;
9160;SDS011;4615;51.340;8.288;2023-06-10T04:36:20;8.90;;;8.00;;
9160;SDS011;4615;51.340;8.288;2023-06-10T04:38:47;8.75;;;7.85;;
9160;SDS011;4615;51.340;8.288;2023-06-10T04:41:13;8.40;;;7.70;;
9160;SDS011;4615;51.340;8.288;2023-06-10T04:43:40;8.77;;;8.07;;
9160;SDS011;4615;51.340;8.288;2023-06-10T04:46:06;8.57;;;7.75;;
9160;SDS011;4615;51.340;8.288;2023-06-10T04:48:34;8.18;;;7.47;;
9160;SDS011;4615;51.340;8.288;2023-06-10T04:51:02;8.40;;;7.60;;
9160;SDS011;4615;51.340;8.288;2023-06-10T04:53:28;8.52;;;7.72;;
9160;SDS011;4615;51.340;8.288;2023-06-10T04:55:54;8.48;;;7.72;;
9160;SDS011;4615;51.340;8.288;2023-06-10T04:58:22;9.50;;;7.80;;
9160;SDS011;4615;51.340;8.288;2023-06-10T05:00:48;8.57;;;7.68;;
9160;SDS011;4615;51.340;8.288;2023-06-10T05:03:15;8.45;;;7.65;;
9160;SDS011;4615;51.340;8.288;2023-06-10T05:05:43;8.10;;;7.43;;
9160;SDS011;4615;51.340;8.288;2023-06-10T05:08:09;8.07;;;7.37;;
9160;SDS011;4615;51.340;8.288;2023-06-10T05:10:35;8.27;;;7.47;;
9160;SDS011;4615;51.340;8.288;2023-06-10T05:13:02;8.10;;;7.30;;
9160;SDS011;4615;51.340;8.288;2023-06-10T05:15:29;8.13;;;7.32;;
9160;SDS011;4615;51.340;8.288;2023-06-10T05:17:56;8.40;;;7.50;;
9160;SDS011;4615;51.340;8.288;2023-06-10T05:20:22;7.70;;;7.00;;
9160;SDS011;4615;51.340;8.288;2023-06-10T05:22:51;8.05;;;7.25;;
9160;SDS011;4615;51.340;8.288;2023-06-10T05:25:18;8.45;;;7.07;;
9160;SDS011;4615;51.340;8.288;2023-06-10T05:27:44;7.97;;;7.28;;
9160;SDS011;4615;51.340;8.288;2023-06-10T05:30:11;8.07;;;7.38;;
9160;SDS011;4615;51.340;8.288;2023-06-10T05:32:37;7.43;;;6.72;;
9160;SDS011;4615;51.340;8.288;2023-06-10T05:35:04;7.63;;;6.95;;
9160;SDS011;4615;51.340;8.288;2023-06-10T05:37:33;7.97;;;7.28;;
9160;SDS011;4615;51.340;8.288;2023-06-10T05:40:01;7.68;;;6.90;;
9160;SDS011;4615;51.340;8.288;2023-06-10T05:42:29;7.53;;;6.93;;
9160;SDS011;4615;51.340;8.288;2023-06-10T05:44:55;7.57;;;6.88;;
9160;SDS011;4615;51.340;8.288;2023-06-10T05:47:22;7.60;;;6.90;;
9160;SDS011;4615;51.340;8.288;2023-06-10T05:49:48;7.28;;;6.68;;
9160;SDS011;4615;51.340;8.288;2023-06-10T05:52:16;6.90;;;6.30;;
9160;SDS011;4615;51.340;8.288;2023-06-10T05:54:43;7.32;;;6.72;;
9160;SDS011;4615;51.340;8.288;2023-06-10T05:57:10;7.10;;;6.45;;
9160;SDS011;4615;51.340;8.288;2023-06-10T05:59:37;7.55;;;6.78;;
9160;SDS011;4615;51.340;8.288;2023-06-10T06:02:04;7.80;;;7.00;;
9160;SDS011;4615;51.340;8.288;2023-06-10T06:04:30;7.45;;;6.75;;
9160;SDS011;4615;51.340;8.288;2023-06-10T06:06:57;7.65;;;6.88;;
9160;SDS011;4615;51.340;8.288;2023-06-10T06:09:23;6.60;;;6.10;;
9160;SDS011;4615;51.340;8.288;2023-06-10T06:11:50;8.00;;;6.35;;
9160;SDS011;4615;51.340;8.288;2023-06-10T06:14:17;6.85;;;6.03;;
9160;SDS011;4615;51.340;8.288;2023-06-10T06:16:44;7.40;;;6.05;;
9160;SDS011;4615;51.340;8.288;2023-06-10T06:19:10;7.13;;;5.80;;
9160;SDS011;4615;51.340;8.288;2023-06-10T06:21:36;6.30;;;5.70;;
9160;SDS011;4615;51.340;8.288;2023-06-10T06:24:03;6.22;;;5.60;;
9160;SDS011;4615;51.340;8.288;2023-06-10T06:26:29;5.40;;;4.88;;
9160;SDS011;4615;51.340;8.288;2023-06-10T06:28:56;7.28;;;4.82;;
9160;SDS011;4615;51.340;8.288;2023-06-10T06:31:23;5.03;;;4.60;;
9160;SDS011;4615;51.340;8.288;2023-06-10T06:33:50;6.78;;;5.15;;
9160;SDS011;4615;51.340;8.288;2023-06-10T06:36:16;5.63;;;4.82;;
9160;SDS011;4615;51.340;8.288;2023-06-10T06:38:43;5.10;;;4.60;;
9160;SDS011;4615;51.340;8.288;2023-06-10T06:41:09;7.03;;;4.93;;
9160;SDS011;4615;51.340;8.288;2023-06-10T06:43:36;7.53;;;4.83;;
9160;SDS011;4615;51.340;8.288;2023-06-10T06:46:02;8.35;;;4.72;;
9160;SDS011;4615;51.340;8.288;2023-06-10T06:48:30;5.47;;;4.55;;
9160;SDS011;4615;51.340;8.288;2023-06-10T06:50:56;5.05;;;4.50;;
9160;SDS011;4615;51.340;8.288;2023-06-10T06:53:23;5.40;;;4.90;;
9160;SDS011;4615;51.340;8.288;2023-06-10T06:55:49;5.10;;;4.60;;
9160;SDS011;4615;51.340;8.288;2023-06-10T06:58:16;6.05;;;4.90;;
9160;SDS011;4615;51.340;8.288;2023-06-10T07:00:42;5.50;;;5.00;;
9160;SDS011;4615;51.340;8.288;2023-06-10T07:03:09;5.68;;;4.30;;
9160;SDS011;4615;51.340;8.288;2023-06-10T07:05:37;6.88;;;4.85;;
9160;SDS011;4615;51.340;8.288;2023-06-10T07:08:04;8.23;;;5.38;;
9160;SDS011;4615;51.340;8.288;2023-06-10T07:10:30;6.93;;;5.03;;
9160;SDS011;4615;51.340;8.288;2023-06-10T07:12:57;5.20;;;4.72;;
9160;SDS011;4615;51.340;8.288;2023-06-10T07:15:24;5.82;;;4.78;;
9160;SDS011;4615;51.340;8.288;2023-06-10T07:17:50;5.45;;;4.50;;
9160;SDS011;4615;51.340;8.288;2023-06-10T07:20:17;5.80;;;5.00;;
9160;SDS011;4615;51.340;8.288;2023-06-10T07:22:44;5.40;;;4.88;;
9160;SDS011;4615;51.340;8.288;2023-06-10T07:25:11;6.57;;;5.00;;
9160;SDS011;4615;51.340;8.288;2023-06-10T07:27:37;5.15;;;4.65;;
9160;SDS011;4615;51.340;8.288;2023-06-10T07:30:04;5.93;;;4.90;;
9160;SDS011;4615;51.340;8.288;2023-06-10T07:32:33;5.97;;;4.72;;
9160;SDS011;4615;51.340;8.288;2023-06-10T07:34:59;5.45;;;4.85;;
9160;SDS011;4615;51.340;8.288;2023-06-10T07:37:26;7.35;;;5.45;;
9160;SDS011;4615;51.340;8.288;2023-06-10T07:39:54;6.93;;;4.90;;
9160;SDS011;4615;51.340;8.288;2023-06-10T07:42:20;5.28;;;4.70;;
9160;SDS011;4615;51.340;8.288;2023-06-10T07:44:47;5.82;;;4.80;;
9160;SDS011;4615;51.340;8.288;2023-06-10T07:47:13;7.68;;;5.20;;
9160;SDS011;4615;51.340;8.288;2023-06-10T07:49:39;5.93;;;4.72;;
9160;SDS011;4615;51.340;8.288;2023-06-10T07:52:07;6.72;;;5.10;;
9160;SDS011;4615;51.340;8.288;2023-06-10T07:54:33;5.65;;;4.80;;
9160;SDS011;4615;51.340;8.288;2023-06-10T07:57:01;5.38;;;4.85;;
9160;SDS011;4615;51.340;8.288;2023-06-10T07:59:28;5.57;;;4.75;;
9160;SDS011;4615;51.340;8.288;2023-06-10T08:01:54;8.15;;;5.30;;
9160;SDS011;4615;51.340;8.288;2023-06-10T08:04:20;5.35;;;4.78;;
9160;SDS011;4615;51.340;8.288;2023-06-10T08:06:47;5.38;;;4.88;;
9160;SDS011;4615;51.340;8.288;2023-06-10T08:09:13;5.38;;;4.88;;
9160;SDS011;4615;51.340;8.288;2023-06-10T08:11:39;5.22;;;4.55;;
9160;SDS011;4615;51.340;8.288;2023-06-10T08:14:07;9.45;;;5.10;;
9160;SDS011;4615;51.340;8.288;2023-06-10T08:16:34;7.60;;;5.18;;
9160;SDS011;4615;51.340;8.288;2023-06-10T08:19:00;6.32;;;4.93;;
9160;SDS011;4615;51.340;8.288;2023-06-10T08:21:26;6.80;;;5.00;;
9160;SDS011;4615;51.340;8.288;2023-06-10T08:23:54;6.30;;;4.97;;
9160;SDS011;4615;51.340;8.288;2023-06-10T08:26:20;5.28;;;4.80;;
9160;SDS011;4615;51.340;8.288;2023-06-10T08:28:47;5.65;;;4.80;;
9160;SDS011;4615;51.340;8.288;2023-06-10T08:31:14;5.50;;;5.00;;
9160;SDS011;4615;51.340;8.288;2023-06-10T08:33:41;5.50;;;4.82;;
9160;SDS011;4615;51.340;8.288;2023-06-10T08:36:07;6.88;;;5.57;;
9160;SDS011;4615;51.340;8.288;2023-06-10T08:38:34;5.30;;;4.80;;
9160;SDS011;4615;51.340;8.288;2023-06-10T08:41:00;6.93;;;4.90;;
9160;SDS011;4615;51.340;8.288;2023-06-10T08:43:29;5.37;;;4.97;;
9160;SDS011;4615;51.340;8.288;2023-06-10T08:45:59;6.60;;;5.10;;
9160;SDS011;4615;51.340;8.288;2023-06-10T08:48:27;5.70;;;5.10;;
9160;SDS011;4615;51.340;8.288;2023-06-10T08:50:55;7.65;;;4.97;;
9160;SDS011;4615;51.340;8.288;2023-06-10T08:53:22;5.75;;;5.03;;
9160;SDS011;4615;51.340;8.288;2023-06-10T08:55:50;7.15;;;5.40;;
9160;SDS011;4615;51.340;8.288;2023-06-10T08:58:17;5.60;;;5.10;;
9160;SDS011;4615;51.340;8.288;2023-06-10T09:00:43;5.60;;;5.07;;
9160;SDS011;4615;51.340;8.288;2023-06-10T09:03:10;6.63;;;5.18;;
9160;SDS011;4615;51.340;8.288;2023-06-10T09:05:38;6.50;;;5.40;;
9160;SDS011;4615;51.340;8.288;2023-06-10T09:08:05;5.57;;;4.90;;
9160;SDS011;4615;51.340;8.288;2023-06-10T09:10:32;5.72;;;5.10;;
9160;SDS011;4615;51.340;8.288;2023-06-10T09:12:58;6.55;;;5.32;;
9160;SDS011;4615;51.340;8.288;2023-06-10T09:15:25;5.97;;;4.97;;
9160;SDS011;4615;51.340;8.288;2023-06-10T09:17:51;5.95;;;5.25;;
9160;SDS011;4615;51.340;8.288;2023-06-10T09:20:18;5.80;;;5.17;;
9160;SDS011;4615;51.340;8.288;2023-06-10T09:22:46;6.15;;;5.10;;
9160;SDS011;4615;51.340;8.288;2023-06-10T09:25:12;8.67;;;5.50;;
9160;SDS011;4615;51.340;8.288;2023-06-10T09:27:45;5.60;;;5.10;;
9160;SDS011;4615;51.340;8.288;2023-06-10T09:30:23;5.85;;;5.30;;
9160;SDS011;4615;51.340;8.288;2023-06-10T09:32:50;6.20;;;5.20;;
9160;SDS011;4615;51.340;8.288;2023-06-10T09:35:16;7.28;;;5.47;;
9160;SDS011;4615;51.340;8.288;2023-06-10T09:37:43;6.10;;;5.20;;
9160;SDS011;4615;51.340;8.288;2023-06-10T09:40:12;6.22;;;5.28;;
9160;SDS011;4615;51.340;8.288;2023-06-10T09:42:38;6.35;;;5.15;;
9160;SDS011;4615;51.340;8.288;2023-06-10T09:45:05;5.90;;;5.10;;
9160;SDS011;4615;51.340;8.288;2023-06-10T09:47:32;5.97;;;5.10;;
9160;SDS011;4615;51.340;8.288;2023-06-10T09:49:58;6.22;;;5.30;;
9160;SDS011;4615;51.340;8.288;2023-06-10T09:52:25;5.50;;;5.00;;
9160;SDS011;4615;51.340;8.288;2023-06-10T09:54:53;6.85;;;5.03;;
9160;SDS011;4615;51.340;8.288;2023-06-10T09:57:21;5.50;;;4.87;;
9160;SDS011;4615;51.340;8.288;2023-06-10T09:59:47;5.63;;;5.03;;
9160;SDS011;4615;51.340;8.288;2023-06-10T10:02:14;6.93;;;5.43;;
9160;SDS011;4615;51.340;8.288;2023-06-10T10:04:41;5.88;;;5.30;;
9160;SDS011;4615;51.340;8.288;2023-06-10T10:07:08;8.20;;;5.10;;
9160;SDS011;4615;51.340;8.288;2023-06-10T10:09:35;8.15;;;5.10;;
9160;SDS011;4615;51.340;8.288;2023-06-10T10:12:01;6.13;;;5.00;;
9160;SDS011;4615;51.340;8.288;2023-06-10T10:14:29;5.67;;;4.93;;
9160;SDS011;4615;51.340;8.288;2023-06-10T10:16:58;5.50;;;4.88;;
9160;SDS011;4615;51.340;8.288;2023-06-10T10:19:27;7.20;;;5.38;;
9160;SDS011;4615;51.340;8.288;2023-06-10T10:21:56;6.35;;;4.95;;
9160;SDS011;4615;51.340;8.288;2023-06-10T10:24:31;7.50;;;5.20;;
9160;SDS011;4615;51.340;8.288;2023-06-10T10:26:59;5.43;;;4.70;;
9160;SDS011;4615;51.340;8.288;2023-06-10T10:29:28;5.55;;;4.95;;
9160;SDS011;4615;51.340;8.288;2023-06-10T10:31:57;6.88;;;4.97;;
9160;SDS011;4615;51.340;8.288;2023-06-10T10:34:30;6.43;;;4.80;;
9160;SDS011;4615;51.340;8.288;2023-06-10T10:36:57;5.70;;;4.85;;
9160;SDS011;4615;51.340;8.288;2023-06-10T10:39:24;5.40;;;4.78;;
9160;SDS011;4615;51.340;8.288;2023-06-10T10:41:53;5.68;;;5.15;;
9160;SDS011;4615;51.340;8.288;2023-06-10T10:44:20;5.47;;;4.90;;
9160;SDS011;4615;51.340;8.288;2023-06-10T10:46:49;5.68;;;5.18;;
9160;SDS011;4615;51.340;8.288;2023-06-10T10:49:17;7.55;;;4.82;;
9160;SDS011;4615;51.340;8.288;2023-06-10T10:51:56;5.40;;;4.90;;
9160;SDS011;4615;51.340;8.288;2023-06-10T10:54:27;5.47;;;5.00;;
9160;SDS011;4615;51.340;8.288;2023-06-10T10:57:09;5.63;;;5.03;;
9160;SDS011;4615;51.340;8.288;2023-06-10T10:59:43;6.28;;;5.10;;
9160;SDS011;4615;51.340;8.288;2023-06-10T11:02:10;5.70;;;5.18;;
9160;SDS011;4615;51.340;8.288;2023-06-10T11:04:38;6.90;;;5.28;;
9160;SDS011;4615;51.340;8.288;2023-06-10T11:07:10;5.77;;;5.13;;
9160;SDS011;4615;51.340;8.288;2023-06-10T11:09:40;6.05;;;5.15;;
9160;SDS011;4615;51.340;8.288;2023-06-10T11:12:23;5.88;;;4.95;;
9160;SDS011;4615;51.340;8.288;2023-06-10T11:14:53;5.43;;;4.93;;
9160;SDS011;4615;51.340;8.288;2023-06-10T11:17:20;6.22;;;5.13;;
9160;SDS011;4615;51.340;8.288;2023-06-10T11:19:47;5.30;;;4.80;;
9160;SDS011;4615;51.340;8.288;2023-06-10T11:22:16;5.78;;;4.60;;
9160;SDS011;4615;51.340;8.288;2023-06-10T11:24:44;5.63;;;4.97;;
9160;SDS011;4615;51.340;8.288;2023-06-10T11:27:16;5.30;;;4.83;;
9160;SDS011;4615;51.340;8.288;2023-06-10T11:29:58;5.63;;;5.13;;
9160;SDS011;4615;51.340;8.288;2023-06-10T11:32:26;5.65;;;5.22;;
9160;SDS011;4615;51.340;8.288;2023-06-10T11:34:57;6.53;;;5.10;;
9160;SDS011;4615;51.340;8.288;2023-06-10T11:37:23;5.63;;;4.82;;
9160;SDS011;4615;51.340;8.288;2023-06-10T11:39:51;6.10;;;5.20;;
9160;SDS011;4615;51.340;8.288;2023-06-10T11:42:17;5.20;;;4.72;;
9160;SDS011;4615;51.340;8.288;2023-06-10T11:44:47;5.67;;;5.00;;
9160;SDS011;4615;51.340;8.288;2023-06-10T11:47:13;5.30;;;4.80;;
9160;SDS011;4615;51.340;8.288;2023-06-10T11:49:39;5.85;;;4.93;;
9160;SDS011;4615;51.340;8.288;2023-06-10T11:52:07;5.60;;;4.80;;
9160;SDS011;4615;51.340;8.288;2023-06-10T11:54:34;5.95;;;4.72;;
9160;SDS011;4615;51.340;8.288;2023-06-10T11:57:00;5.90;;;4.80;;
9160;SDS011;4615;51.340;8.288;2023-06-10T11:59:28;5.00;;;4.50;;
9160;SDS011;4615;51.340;8.288;2023-06-10T12:01:55;5.15;;;4.65;;
9160;SDS011;4615;51.340;8.288;2023-06-10T12:04:21;7.43;;;4.90;;
9160;SDS011;4615;51.340;8.288;2023-06-10T12:06:48;6.82;;;4.88;;
9160;SDS011;4615;51.340;8.288;2023-06-10T12:09:17;5.40;;;4.90;;
9160;SDS011;4615;51.340;8.288;2023-06-10T12:11:44;5.22;;;4.78;;
9160;SDS011;4615;51.340;8.288;2023-06-10T12:14:10;5.15;;;4.65;;
9160;SDS011;4615;51.340;8.288;2023-06-10T12:16:37;5.03;;;4.53;;
9160;SDS011;4615;51.340;8.288;2023-06-10T12:19:03;4.87;;;4.47;;
9160;SDS011;4615;51.340;8.288;2023-06-10T12:21:31;5.03;;;4.53;;
9160;SDS011;4615;51.340;8.288;2023-06-10T12:24:04;5.13;;;4.70;;
9160;SDS011;4615;51.340;8.288;2023-06-10T12:26:36;6.25;;;4.88;;
9160;SDS011;4615;51.340;8.288;2023-06-10T12:29:12;5.20;;;4.70;;
9160;SDS011;4615;51.340;8.288;2023-06-10T12:31:51;5.47;;;4.65;;
9160;SDS011;4615;51.340;8.288;2023-06-10T12:34:20;5.10;;;4.60;;
9160;SDS011;4615;51.340;8.288;2023-06-10T12:36:47;5.28;;;4.75;;
9160;SDS011;4615;51.340;8.288;2023-06-10T12:39:14;7.03;;;4.75;;
9160;SDS011;4615;51.340;8.288;2023-06-10T12:41:42;5.18;;;4.68;;
9160;SDS011;4615;51.340;8.288;2023-06-10T12:44:13;4.80;;;4.38;;
9160;SDS011;4615;51.340;8.288;2023-06-10T12:46:40;7.35;;;4.65;;
9160;SDS011;4615;51.340;8.288;2023-06-10T12:49:06;5.15;;;4.45;;
9160;SDS011;4615;51.340;8.288;2023-06-10T12:51:32;5.00;;;4.47;;
9160;SDS011;4615;51.340;8.288;2023-06-10T12:54:00;6.30;;;4.40;;
9160;SDS011;4615;51.340;8.288;2023-06-10T12:56:27;5.40;;;4.20;;
9160;SDS011;4615;51.340;8.288;2023-06-10T12:58:55;6.45;;;4.40;;
9160;SDS011;4615;51.340;8.288;2023-06-10T13:01:21;6.70;;;4.50;;
9160;SDS011;4615;51.340;8.288;2023-06-10T13:03:48;4.80;;;4.30;;
9160;SDS011;4615;51.340;8.288;2023-06-10T13:06:14;5.87;;;4.40;;
9160;SDS011;4615;51.340;8.288;2023-06-10T13:08:41;5.60;;;4.43;;
9160;SDS011;4615;51.340;8.288;2023-06-10T13:11:07;4.97;;;4.45;;
9160;SDS011;4615;51.340;8.288;2023-06-10T13:13:36;7.38;;;4.50;;
9160;SDS011;4615;51.340;8.288;2023-06-10T13:16:04;5.70;;;4.37;;
9160;SDS011;4615;51.340;8.288;2023-06-10T13:18:30;5.80;;;4.63;;
9160;SDS011;4615;51.340;8.288;2023-06-10T13:21:02;5.77;;;4.67;;
9160;SDS011;4615;51.340;8.288;2023-06-10T13:23:28;5.00;;;4.50;;
9160;SDS011;4615;51.340;8.288;2023-06-10T13:25:56;8.05;;;4.65;;
9160;SDS011;4615;51.340;8.288;2023-06-10T13:28:22;5.38;;;4.40;;
9160;SDS011;4615;51.340;8.288;2023-06-10T13:30:49;4.85;;;4.35;;
9160;SDS011;4615;51.340;8.288;2023-06-10T13:33:16;5.65;;;4.55;;
9160;SDS011;4615;51.340;8.288;2023-06-10T13:35:43;6.93;;;4.57;;
9160;SDS011;4615;51.340;8.288;2023-06-10T13:38:09;5.70;;;4.22;;
9160;SDS011;4615;51.340;8.288;2023-06-10T13:40:36;4.87;;;4.33;;
9160;SDS011;4615;51.340;8.288;2023-06-10T13:43:02;6.40;;;4.43;;
9160;SDS011;4615;51.340;8.288;2023-06-10T13:45:29;4.68;;;4.00;;
9160;SDS011;4615;51.340;8.288;2023-06-10T13:47:55;4.65;;;4.25;;
9160;SDS011;4615;51.340;8.288;2023-06-10T13:50:23;5.28;;;4.38;;
9160;SDS011;4615;51.340;8.288;2023-06-10T13:52:50;5.68;;;4.65;;
9160;SDS011;4615;51.340;8.288;2023-06-10T13:55:16;5.05;;;4.40;;
9160;SDS011;4615;51.340;8.288;2023-06-10T13:57:44;5.05;;;4.30;;
9160;SDS011;4615;51.340;8.288;2023-06-10T14:00:10;6.25;;;4.65;;
9160;SDS011;4615;51.340;8.288;2023-06-10T14:02:37;5.63;;;4.30;;
9160;SDS011;4615;51.340;8.288;2023-06-10T14:05:04;5.10;;;4.23;;
9160;SDS011;4615;51.340;8.288;2023-06-10T14:07:32;5.10;;;4.55;;
9160;SDS011;4615;51.340;8.288;2023-06-10T14:09:58;5.13;;;4.40;;
9160;SDS011;4615;51.340;8.288;2023-06-10T14:12:24;6.38;;;4.82;;
9160;SDS011;4615;51.340;8.288;2023-06-10T14:14:51;4.93;;;4.45;;
9160;SDS011;4615;51.340;8.288;2023-06-10T14:17:17;5.30;;;4.80;;
9160;SDS011;4615;51.340;8.288;2023-06-10T14:19:44;5.13;;;4.20;;
9160;SDS011;4615;51.340;8.288;2023-06-10T14:22:10;4.80;;;4.40;;
9160;SDS011;4615;51.340;8.288;2023-06-10T14:24:38;5.77;;;4.40;;
9160;SDS011;4615;51.340;8.288;2023-06-10T14:27:05;5.13;;;4.40;;
9160;SDS011;4615;51.340;8.288;2023-06-10T14:29:31;8.30;;;4.97;;
9160;SDS011;4615;51.340;8.288;2023-06-10T14:31:58;8.03;;;4.60;;
9160;SDS011;4615;51.340;8.288;2023-06-10T14:34:25;5.00;;;4.47;;
9160;SDS011;4615;51.340;8.288;2023-06-10T14:36:53;4.90;;;4.30;;
9160;SDS011;4615;51.340;8.288;2023-06-10T14:39:20;5.82;;;4.43;;
9160;SDS011;4615;51.340;8.288;2023-06-10T14:41:48;5.50;;;4.50;;
9160;SDS011;4615;51.340;8.288;2023-06-10T14:44:14;5.03;;;4.53;;
9160;SDS011;4615;51.340;8.288;2023-06-10T14:46:40;4.72;;;4.28;;
9160;SDS011;4615;51.340;8.288;2023-06-10T14:49:07;4.60;;;4.18;;
9160;SDS011;4615;51.340;8.288;2023-06-10T14:51:33;5.90;;;4.63;;
9160;SDS011;4615;51.340;8.288;2023-06-10T14:54:00;5.10;;;4.60;;
9160;SDS011;4615;51.340;8.288;2023-06-10T14:56:26;5.57;;;4.65;;
9160;SDS011;4615;51.340;8.288;2023-06-10T14:58:54;6.72;;;4.60;;
9160;SDS011;4615;51.340;8.288;2023-06-10T15:01:20;5.00;;;4.50;;
9160;SDS011;4615;51.340;8.288;2023-06-10T15:03:47;6.20;;;4.20;;
9160;SDS011;4615;51.340;8.288;2023-06-10T15:06:13;5.57;;;4.47;;
9160;SDS011;4615;51.340;8.288;2023-06-10T15:08:42;6.45;;;4.70;;
9160;SDS011;4615;51.340;8.288;2023-06-10T15:11:08;5.20;;;4.38;;
9160;SDS011;4615;51.340;8.288;2023-06-10T15:13:35;6.90;;;5.05;;
9160;SDS011;4615;51.340;8.288;2023-06-10T15:16:02;5.47;;;4.88;;